Terminal Aerodrome Forecast
Issued by NWS Louisville, KY

Current Version | Previous Version | Text Only | Print | Product List | Glossary On
Versions: 1 2 3 4 5 6 7 8 9 10 11 12 13
000
FTUS43 KLMK 221100
TAFLEX
TAF
KLEX 221124Z 2212/2312 34006KT P6SM BKN035
     FM221600 01006KT P6SM SCT040
     FM222300 03004KT P6SM SKC
     FM231000 00000KT 3SM BR SKC=

USA.gov is the U.S. government's official web portal to all federal, state and local government web resources and services.